Terminal Aerodrome Forecast
Issued by NWS Grand Forks, ND

Home | Current Version | Previous Version | Graphics & Text | Print | Product List | Glossary On
Versions: 1 2 3 4 5 6 7 8 9 10 11 12 13 14 15 16 17 18 19
000
FTUS43 KFGF 010500
TAFGFK
TAF
KGFK 010520Z 0106/0206 30013KT P6SM -SHRA BKN060
     FM010700 30007KT P6SM SCT060
     FM010900 30005KT 4SM BR SKC
     FM011400 27010KT P6SM SKC
     FM020100 18007KT P6SM SKC=

USA.gov is the U.S. government's official web portal to all federal, state and local government web resources and services.